Terminal Aerodrome Forecast
Issued by NWS Cleveland, OH

Home | Current Version | Previous Version | Graphics & Text | Print | Product List | Glossary On
Versions: 1 2 3 4 5 6 7 8 9 10 11 12 13 14 15 16 17 18 19 20 21 22 23 24 25 26 27
000
FTUS41 KCLE 261200 AAA
TAFCLE
TAF AMD
KCLE 261241Z 2613/2718 03015KT 2SM -SN BKN015 OVC035
      TEMPO 2613/2615 4SM -SN BKN009
     FM261500 01012KT 6SM -SN BKN012 OVC060
     FM262000 36012KT P6SM OVC020
     FM270200 35008KT P6SM OVC020=

USA.gov is the U.S. government's official web portal to all federal, state and local government web resources and services.